Time;durP1;ratioP1;P1;durP2;ratioP2;P2;SDS_P1;SDS_P2;PMS_P1;PMS_P2;Temp;Humidity;BMP_temperature;BMP_pressure;BME280_temperature;BME280_humidity;BME280_pressure;Samples;Min_cycle;Max_cycle;Signal;HPM_P1;HPM_P2
2023/08/04 00:00:17;;;;;;;5.38;3.33;;;;;;;29.72;43.87;98396.41;5016433;28;20174;-85
2023/08/04 00:02:44;;;;;;;7.82;3.22;;;;;;;29.70;43.51;98393.94;5034308;28;20175;-85
2023/08/04 00:05:11;;;;;;;5.80;3.15;;;;;;;29.68;43.64;98389.78;5016271;28;20292;-85
2023/08/04 00:07:37;;;;;;;5.50;2.92;;;;;;;29.68;43.63;98390.63;5033645;28;20190;-85
2023/08/04 00:10:03;;;;;;;5.03;3.10;;;;;;;29.68;43.66;98387.94;5033618;28;20237;-85
2023/08/04 00:12:30;;;;;;;7.57;3.47;;;;;;;29.67;43.59;98393.53;5016319;28;20178;-85
2023/08/04 00:14:57;;;;;;;7.53;3.60;;;;;;;29.59;43.42;98391.94;5033504;28;20185;-85
2023/08/04 00:17:24;;;;;;;5.50;3.67;;;;;;;29.54;43.87;98394.47;5033863;28;20177;-85
2023/08/04 00:19:49;;;;;;;6.18;3.47;;;;;;;29.46;44.07;98392.03;5033418;28;20190;-85
2023/08/04 00:22:15;;;;;;;6.18;3.67;;;;;;;29.40;44.45;98397.50;5033518;28;20178;-85
2023/08/04 00:24:40;;;;;;;8.18;3.78;;;;;;;29.39;44.48;98402.06;5033333;28;20683;-85
2023/08/04 00:27:06;;;;;;;7.28;3.70;;;;;;;29.35;44.06;98403.53;5032625;28;20297;-85
2023/08/04 00:29:31;;;;;;;5.72;3.20;;;;;;;29.28;44.99;98404.63;5016063;28;20214;-85
2023/08/04 00:31:58;;;;;;;8.15;3.70;;;;;;;29.20;45.26;98413.78;5033676;28;20526;-85
2023/08/04 00:34:24;;;;;;;7.00;3.85;;;;;;;29.16;45.03;98405.31;5015976;28;20174;-85
2023/08/04 00:36:51;;;;;;;7.57;3.72;;;;;;;29.16;45.53;98405.31;5015966;28;20273;-85
2023/08/04 00:39:17;;;;;;;6.68;3.67;;;;;;;29.17;45.18;98403.41;5033317;28;20674;-85
2023/08/04 00:41:43;;;;;;;5.53;3.33;;;;;;;29.18;44.80;98405.91;5015850;28;20543;-85
2023/08/04 00:44:09;;;;;;;5.45;3.60;;;;;;;29.15;45.16;98405.50;5015564;28;20285;-85
2023/08/04 00:46:37;;;;;;;4.88;3.40;;;;;;;29.11;45.24;98409.69;5015767;28;20178;-85
2023/08/04 00:49:04;;;;;;;5.40;3.67;;;;;;;29.08;45.46;98404.72;5015771;28;20174;-85
2023/08/04 00:51:31;;;;;;;7.10;3.20;;;;;;;29.06;45.41;98401.41;5033413;28;20293;-85
2023/08/04 00:53:57;;;;;;;6.82;3.95;;;;;;;29.00;45.77;98402.25;5015784;28;20310;-85
2023/08/04 00:56:23;;;;;;;7.35;3.72;;;;;;;28.98;45.71;98410.56;5015772;28;20242;-85
2023/08/04 00:58:49;;;;;;;5.07;3.40;;;;;;;28.99;45.51;98406.81;5015762;28;20182;-85
2023/08/04 01:01:15;;;;;;;6.07;3.38;;;;;;;29.02;45.07;98406.41;5033125;28;20628;-85
2023/08/04 01:03:42;;;;;;;6.38;4.00;;;;;;;28.99;45.24;98406.81;5032885;28;20691;-85
2023/08/04 01:07:00;;;;;;;5.10;3.22;;;;;;;28.99;45.15;98406.00;5033351;28;20193;-85
2023/08/04 01:09:49;;;;;;;6.97;4.15;;;;;;;28.96;45.49;98403.72;4990982;28;20198;-85
2023/08/04 01:12:41;;;;;;;5.38;3.38;;;;;;;28.95;44.87;98410.19;5033308;28;20241;-85
2023/08/04 01:15:10;;;;;;;5.88;3.50;;;;;;;28.92;45.13;98408.75;5012600;28;20619;-85
2023/08/04 01:17:37;;;;;;;7.30;3.85;;;;;;;28.92;44.90;98405.22;5032898;28;20167;-85
2023/08/04 01:20:03;;;;;;;5.90;3.45;;;;;;;28.89;45.48;98413.72;5032766;28;20170;-85
2023/08/04 01:22:28;;;;;;;6.10;4.38;;;;;;;28.82;45.83;98412.94;5015517;28;20236;-85
2023/08/04 01:24:55;;;;;;;5.32;3.67;;;;;;;28.79;46.07;98416.06;5015464;28;20206;-85
2023/08/04 01:27:31;;;;;;;7.28;4.25;;;;;;;28.77;46.10;98413.59;5033390;28;20261;-85
2023/08/04 01:30:00;;;;;;;6.60;4.07;;;;;;;28.77;46.14;98418.16;5033467;28;20166;-85
2023/08/04 01:32:27;;;;;;;5.30;3.70;;;;;;;28.69;46.78;98421.91;5015428;28;20174;-85
2023/08/04 01:34:54;;;;;;;7.18;4.25;;;;;;;28.68;46.22;98414.03;5015260;28;20178;-85
2023/08/04 01:37:19;;;;;;;8.07;4.80;;;;;;;28.68;46.06;98419.41;5034090;28;20628;-85
2023/08/04 01:39:45;;;;;;;6.50;4.30;;;;;;;28.68;46.19;98417.56;5036372;28;20624;-85
2023/08/04 01:42:11;;;;;;;6.38;4.03;;;;;;;28.68;46.12;98412.16;5036493;28;20181;-85
2023/08/04 01:44:36;;;;;;;6.57;4.22;;;;;;;28.61;46.14;98425.69;5018936;28;20231;-85
2023/08/04 01:47:05;;;;;;;6.60;4.13;;;;;;;28.55;46.64;98421.09;5036191;28;20178;-85
2023/08/04 01:49:31;;;;;;;6.18;4.32;;;;;;;28.50;46.41;98428.16;5036348;28;20200;-85
2023/08/04 01:51:57;;;;;;;7.10;4.38;;;;;;;28.44;46.84;98424.44;5036233;28;20545;-85
2023/08/04 01:54:22;;;;;;;5.50;3.80;;;;;;;28.39;46.79;98431.50;5036261;28;20171;-85
2023/08/04 01:56:49;;;;;;;8.65;5.15;;;;;;;28.34;47.18;98437.53;5036200;28;20186;-84
2023/08/04 01:59:15;;;;;;;5.82;4.15;;;;;;;28.28;47.85;98430.28;5036699;28;20176;-85
2023/08/04 02:01:41;;;;;;;6.10;3.67;;;;;;;28.23;47.77;98432.78;5018717;28;20182;-84
2023/08/04 02:04:06;;;;;;;6.97;4.15;;;;;;;28.18;47.55;98429.88;5036526;28;20194;-85
2023/08/04 02:06:33;;;;;;;6.18;4.10;;;;;;;28.21;47.44;98440.25;5035962;28;20324;-84
2023/08/04 02:08:59;;;;;;;8.43;4.85;;;;;;;28.22;47.45;98441.91;5035957;28;20182;-84
2023/08/04 02:11:24;;;;;;;6.63;4.18;;;;;;;28.12;47.87;98436.09;5018487;28;20686;-85
2023/08/04 02:13:50;;;;;;;8.77;4.32;;;;;;;28.11;48.16;98436.31;5018309;28;20269;-84
2023/08/04 02:16:16;;;;;;;6.07;3.88;;;;;;;28.06;47.71;98436.97;5036080;28;20182;-84
2023/08/04 02:18:43;;;;;;;8.93;4.82;;;;;;;27.99;48.23;98441.47;5018214;28;20182;-84
2023/08/04 02:21:08;;;;;;;7.75;4.22;;;;;;;27.96;48.04;98439.22;5035774;28;20208;-85
2023/08/04 02:23:34;;;;;;;6.95;3.88;;;;;;;27.96;48.10;98437.31;5036202;28;20285;-84
2023/08/04 02:26:00;;;;;;;5.07;3.13;;;;;;;27.87;48.91;98448.53;5035713;28;20253;-85
2023/08/04 02:28:26;;;;;;;7.45;3.92;;;;;;;27.76;48.70;98451.81;5018140;28;20192;-84
2023/08/04 02:30:52;;;;;;;6.47;3.75;;;;;;;27.77;48.72;98456.19;5035573;28;20531;-84
2023/08/04 02:33:19;;;;;;;6.82;4.03;;;;;;;27.80;48.23;98463.88;5035579;28;20162;-84
2023/08/04 02:35:46;;;;;;;7.35;4.47;;;;;;;27.75;48.38;98460.97;5035520;28;20233;-84
2023/08/04 02:38:12;;;;;;;6.97;4.30;;;;;;;27.72;48.38;98458.69;5018016;28;20531;-84
2023/08/04 02:40:38;;;;;;;6.30;4.30;;;;;;;27.72;48.47;98462.19;5035557;28;20278;-84
2023/08/04 02:43:03;;;;;;;6.72;4.20;;;;;;;27.66;49.41;98465.72;5035331;28;20285;-85
2023/08/04 02:45:30;;;;;;;12.43;4.70;;;;;;;27.61;50.02;98464.66;5035251;28;20206;-84
2023/08/04 02:47:56;;;;;;;10.60;4.28;;;;;;;27.55;50.33;98470.84;5035158;28;20171;-84
2023/08/04 02:50:23;;;;;;;10.90;4.85;;;;;;;27.56;49.99;98470.66;5017018;28;20240;-84
2023/08/04 02:52:48;;;;;;;7.78;4.28;;;;;;;27.57;49.50;98466.91;5018381;28;20178;-84
2023/08/04 02:55:15;;;;;;;6.32;4.03;;;;;;;27.55;48.96;98476.25;5034908;28;20179;-84
2023/08/04 02:57:42;;;;;;;6.88;4.50;;;;;;;27.43;49.98;98476.84;5035264;28;20174;-84
2023/08/04 03:00:08;;;;;;;5.97;4.10;;;;;;;27.39;50.07;98480.97;5017737;28;20550;-84
2023/08/04 03:02:35;;;;;;;7.38;4.50;;;;;;;27.35;50.10;98477.00;5017575;28;20182;-84
2023/08/04 03:05:02;;;;;;;6.88;4.13;;;;;;;27.33;49.35;98480.94;5034728;28;20218;-84
2023/08/04 03:07:27;;;;;;;6.95;4.47;;;;;;;27.29;49.70;98474.28;5035188;28;20624;-84
2023/08/04 03:09:53;;;;;;;5.65;3.83;;;;;;;27.22;50.32;98478.81;5034862;28;20201;-84
2023/08/04 03:12:18;;;;;;;6.60;4.18;;;;;;;27.19;50.22;98477.38;5035367;28;20217;-84
2023/08/04 03:14:45;;;;;;;6.88;4.80;;;;;;;27.20;50.29;98479.00;5034607;28;20220;-84
2023/08/04 03:17:11;;;;;;;7.43;4.40;;;;;;;27.17;50.30;98471.38;5017080;28;20174;-84
2023/08/04 03:19:38;;;;;;;6.28;4.32;;;;;;;27.15;50.24;98476.09;5034962;28;20171;-84
2023/08/04 03:22:03;;;;;;;8.88;4.50;;;;;;;27.13;50.58;98480.84;5017213;28;20257;-84
2023/08/04 03:24:30;;;;;;;6.60;4.15;;;;;;;27.04;51.64;98479.38;5017076;28;20649;-84
2023/08/04 03:26:56;;;;;;;9.25;4.80;;;;;;;26.98;51.95;98479.34;5017063;28;20174;-84
2023/08/04 03:29:23;;;;;;;6.25;3.80;;;;;;;26.97;51.84;98483.91;5034995;28;20620;-84
2023/08/04 03:31:50;;;;;;;8.18;4.72;;;;;;;26.93;52.47;98493.41;5016890;28;20228;-84
2023/08/04 03:34:15;;;;;;;7.43;4.28;;;;;;;27.00;51.62;98483.50;5034584;28;20167;-84
2023/08/04 03:36:42;;;;;;;9.18;4.97;;;;;;;27.03;51.86;98485.78;5034614;28;20231;-84
2023/08/04 03:39:07;;;;;;;6.28;3.78;;;;;;;27.05;50.97;98493.66;5034264;28;20322;-84
2023/08/04 03:41:32;;;;;;;8.52;4.03;;;;;;;27.02;51.50;98502.94;5016705;28;20684;-84
2023/08/04 03:43:58;;;;;;;7.70;4.05;;;;;;;27.05;51.58;98491.78;5034349;28;20201;-84
2023/08/04 03:46:25;;;;;;;9.93;4.65;;;;;;;27.07;50.81;98502.38;5034107;28;20663;-84
2023/08/04 03:48:50;;;;;;;7.97;4.72;;;;;;;27.10;50.66;98499.25;5034038;28;20187;-84
2023/08/04 03:51:17;;;;;;;7.13;4.25;;;;;;;27.14;50.28;98504.06;5034255;28;20320;-84
2023/08/04 03:53:43;;;;;;;6.73;3.90;;;;;;;27.08;51.02;98498.63;5034003;28;20193;-84
2023/08/04 03:56:10;;;;;;;8.10;4.38;;;;;;;26.97;51.46;98509.97;5033982;28;20640;-84
2023/08/04 03:58:35;;;;;;;8.10;4.03;;;;;;;26.92;52.15;98507.03;5033933;28;20166;-84
2023/08/04 04:01:02;;;;;;;7.53;4.50;;;;;;;26.90;52.42;98509.94;5033330;28;20654;-84
2023/08/04 04:03:27;;;;;;;5.07;3.63;;;;;;;26.86;52.69;98508.66;5015896;28;20206;-84
2023/08/04 04:05:54;;;;;;;5.68;4.00;;;;;;;26.82;52.61;98510.09;5032996;28;20229;-84
2023/08/04 04:08:19;;;;;;;6.95;3.75;;;;;;;26.87;52.75;98510.34;5029814;28;20258;-84
2023/08/04 04:10:45;;;;;;;6.53;4.03;;;;;;;26.97;52.34;98516.16;5012422;28;20629;-84
2023/08/04 04:13:10;;;;;;;11.57;3.88;;;;;;;27.09;51.86;98517.28;4995362;28;20229;-84
2023/08/04 04:15:35;;;;;;;8.50;4.07;;;;;;;27.12;52.40;98524.94;5021252;28;20188;-84
2023/08/04 04:18:01;;;;;;;9.35;3.80;;;;;;;27.17;52.07;98514.41;5016187;28;20236;-83
2023/08/04 04:20:26;;;;;;;9.40;4.45;;;;;;;27.25;51.76;98522.28;5032381;28;20643;-84
2023/08/04 04:22:53;;;;;;;7.20;4.90;;;;;;;27.36;51.23;98537.03;5016107;28;20213;-84
2023/08/04 04:25:18;;;;;;;12.03;5.07;;;;;;;27.42;51.80;98529.03;5033320;28;20189;-84
2023/08/04 04:27:43;;;;;;;13.68;4.32;;;;;;;27.46;52.20;98520.56;5033486;28;20174;-84
2023/08/04 04:30:09;;;;;;;6.38;4.10;;;;;;;27.54;51.74;98528.44;5033447;28;20178;-84
2023/08/04 04:32:34;;;;;;;7.18;4.43;;;;;;;27.65;51.36;98525.13;5033423;28;20518;-84
2023/08/04 04:35:01;;;;;;;7.70;4.78;;;;;;;27.72;51.25;98534.09;4997812;28;20321;-84
2023/08/04 04:37:26;;;;;;;9.60;4.10;;;;;;;27.74;51.73;98534.69;5013537;28;20183;-84
2023/08/04 04:39:51;;;;;;;6.78;4.35;;;;;;;27.87;51.63;98534.72;5013815;28;20235;-84
2023/08/04 04:42:17;;;;;;;7.22;4.25;;;;;;;27.98;50.86;98536.81;5010849;28;20621;-84
2023/08/04 04:44:42;;;;;;;8.65;4.40;;;;;;;28.11;50.01;98531.47;5013725;28;20209;-84
2023/08/04 04:47:09;;;;;;;7.70;4.30;;;;;;;28.18;49.54;98521.50;5013486;28;20625;-84
2023/08/04 04:49:34;;;;;;;7.50;4.43;;;;;;;28.29;49.39;98530.84;5025450;28;20193;-84
2023/08/04 04:52:00;;;;;;;7.25;4.40;;;;;;;28.43;49.49;98527.13;5033127;28;20604;-84
2023/08/04 04:54:25;;;;;;;7.13;4.55;;;;;;;28.54;49.21;98521.91;5033459;28;20170;-84
2023/08/04 04:56:51;;;;;;;16.33;5.10;;;;;;;28.64;48.90;98530.41;5013162;28;20270;-86
2023/08/04 04:59:16;;;;;;;7.15;4.07;;;;;;;28.77;49.06;98526.06;4996095;28;20182;-85
2023/08/04 05:01:43;;;;;;;9.02;4.93;;;;;;;28.89;48.85;98532.44;5028427;28;20178;-85
2023/08/04 05:04:08;;;;;;;6.90;4.75;;;;;;;29.04;48.68;98527.63;5013200;28;20572;-85
2023/08/04 05:06:34;;;;;;;6.78;3.97;;;;;;;29.12;47.68;98530.91;5012828;28;20190;-84
2023/08/04 05:08:59;;;;;;;6.03;4.25;;;;;;;29.27;46.49;98533.41;5011487;28;20179;-85
2023/08/04 05:11:25;;;;;;;7.32;4.43;;;;;;;29.44;46.34;98529.16;5011326;28;20539;-84
2023/08/04 05:13:50;;;;;;;6.03;3.63;;;;;;;29.62;46.15;98531.13;5031602;28;20201;-84
2023/08/04 05:16:15;;;;;;;6.82;4.22;;;;;;;29.77;46.09;98537.91;5035019;28;20174;-84
2023/08/04 05:18:41;;;;;;;8.10;3.35;;;;;;;29.99;45.68;98535.72;5017608;28;20245;-84
2023/08/04 05:21:06;;;;;;;8.60;3.67;;;;;;;30.38;45.16;98531.88;5035186;28;20635;-84
2023/08/04 05:23:32;;;;;;;9.35;4.28;;;;;;;30.85;44.95;98535.78;5034873;28;20229;-84
2023/08/04 05:25:57;;;;;;;6.63;4.80;;;;;;;31.28;44.58;98538.47;5017586;28;20182;-85
2023/08/04 05:28:30;;;;;;;9.43;4.60;;;;;;;31.65;43.94;98537.41;5035282;28;20178;-84
2023/08/04 05:30:57;;;;;;;7.63;4.28;;;;;;;31.61;42.37;98542.44;5036690;28;20185;-85
2023/08/04 05:33:24;;;;;;;9.23;4.28;;;;;;;31.58;42.62;98540.19;5036651;28;20170;-85
2023/08/04 05:35:49;;;;;;;8.50;4.30;;;;;;;31.48;42.14;98544.47;5036594;28;20178;-85
2023/08/04 05:38:15;;;;;;;8.38;4.32;;;;;;;31.55;42.32;98542.53;5036544;28;20269;-85
2023/08/04 05:40:43;;;;;;;6.53;3.85;;;;;;;31.24;43.07;98553.50;5036811;28;20292;-85
2023/08/04 05:43:09;;;;;;;9.20;4.20;;;;;;;31.52;42.80;98551.13;5019022;28;20217;-85
2023/08/04 05:45:39;;;;;;;7.90;4.07;;;;;;;31.87;41.87;98554.78;5036412;28;20587;-85
2023/08/04 05:48:05;;;;;;;6.57;4.40;;;;;;;31.70;43.01;98553.78;5018923;28;20210;-85
2023/08/04 05:50:30;;;;;;;9.35;4.53;;;;;;;31.48;43.49;98556.16;5036332;28;20256;-85
2023/08/04 05:52:57;;;;;;;9.13;5.03;;;;;;;31.71;43.65;98549.19;5036150;28;20641;-85
2023/08/04 05:55:22;;;;;;;9.65;4.75;;;;;;;31.98;42.89;98554.00;5018801;28;20240;-85
2023/08/04 05:57:49;;;;;;;7.57;4.72;;;;;;;31.81;43.51;98555.72;5019119;28;20596;-85
2023/08/04 06:00:15;;;;;;;14.65;5.13;;;;;;;32.04;42.88;98555.81;5036205;28;20269;-85
2023/08/04 06:02:41;;;;;;;12.38;4.32;;;;;;;32.35;42.73;98543.00;5018703;28;20178;-85
2023/08/04 06:05:07;;;;;;;8.30;4.30;;;;;;;32.53;42.18;98543.78;5018699;28;20364;-85
2023/08/04 06:07:32;;;;;;;7.30;4.90;;;;;;;32.63;41.91;98548.59;5018684;28;20594;-85
2023/08/04 06:09:58;;;;;;;9.73;5.13;;;;;;;32.80;42.09;98546.84;5018220;28;20186;-85
2023/08/04 06:12:23;;;;;;;10.77;4.72;;;;;;;33.05;41.89;98546.59;5036444;28;20174;-86
2023/08/04 06:14:50;;;;;;;13.57;5.47;;;;;;;33.23;41.32;98544.56;5035932;28;20166;-85
2023/08/04 06:17:15;;;;;;;7.38;4.60;;;;;;;33.21;41.86;98546.69;5018399;28;20567;-85
2023/08/04 06:19:43;;;;;;;7.25;4.82;;;;;;;33.15;41.59;98553.06;5018576;28;20205;-85
2023/08/04 06:22:09;;;;;;;7.80;4.25;;;;;;;33.05;41.63;98552.84;5035794;28;20368;-85
2023/08/04 06:24:35;;;;;;;11.70;4.95;;;;;;;33.26;40.89;98549.50;5034363;28;20693;-86
2023/08/04 06:27:02;;;;;;;7.15;4.45;;;;;;;33.59;40.58;98553.47;5018302;28;20174;-86
2023/08/04 06:29:27;;;;;;;8.30;4.78;;;;;;;33.60;40.80;98558.66;5018194;28;20269;-86
2023/08/04 06:31:53;;;;;;;9.80;5.05;;;;;;;33.61;39.74;98560.31;5018192;28;20282;-86
2023/08/04 06:34:18;;;;;;;10.77;5.00;;;;;;;33.81;39.39;98552.53;5018109;28;20170;-86
2023/08/04 06:36:47;;;;;;;8.93;4.57;;;;;;;34.39;38.27;98560.41;5018407;28;20600;-86
2023/08/04 06:39:13;;;;;;;11.00;4.68;;;;;;;34.77;37.82;98545.22;5017997;28;20273;-86
2023/08/04 06:41:39;;;;;;;8.45;4.78;;;;;;;35.04;37.71;98546.97;5035424;28;20209;-86
2023/08/04 06:44:04;;;;;;;13.13;4.95;;;;;;;35.32;37.19;98548.75;5035282;28;20267;-86
2023/08/04 06:46:30;;;;;;;9.88;4.63;;;;;;;35.62;37.28;98549.13;5035567;28;20174;-86
2023/08/04 06:48:55;;;;;;;8.25;4.55;;;;;;;35.83;36.83;98539.25;5017840;28;20272;-86
2023/08/04 06:51:21;;;;;;;14.93;5.47;;;;;;;36.06;37.20;98547.13;5035176;28;20628;-86
2023/08/04 06:53:46;;;;;;;6.18;4.45;;;;;;;36.14;36.42;98541.22;5017673;28;20224;-86
2023/08/04 06:56:11;;;;;;;5.82;3.83;;;;;;;36.37;35.95;98540.06;5035081;28;20253;-86
2023/08/04 06:58:37;;;;;;;9.30;4.60;;;;;;;36.64;35.72;98537.25;5017832;28;20633;-86
2023/08/04 07:01:02;;;;;;;8.68;4.70;;;;;;;36.69;35.11;98538.13;5034959;28;20560;-86
2023/08/04 07:03:28;;;;;;;6.72;3.85;;;;;;;36.76;36.35;98532.44;5017454;28;20202;-86
2023/08/04 07:05:53;;;;;;;7.18;3.85;;;;;;;36.63;35.19;98539.19;5023095;28;20195;-86
2023/08/04 07:08:18;;;;;;;9.30;5.13;;;;;;;36.88;35.31;98536.59;4998380;28;20278;-86
2023/08/04 07:10:45;;;;;;;9.07;5.13;;;;;;;36.93;34.46;98536.63;4997796;28;20203;-87
2023/08/04 07:13:10;;;;;;;5.30;3.88;;;;;;;36.63;35.61;98538.38;5015031;28;20258;-86
2023/08/04 07:15:36;;;;;;;7.95;5.38;;;;;;;36.98;34.66;98541.31;5014834;28;20179;-86
2023/08/04 07:18:02;;;;;;;6.32;3.97;;;;;;;37.37;34.30;98541.81;5014960;28;20179;-86
2023/08/04 07:20:28;;;;;;;6.25;4.43;;;;;;;37.72;31.94;98530.16;5014700;28;20179;-86
2023/08/04 07:22:54;;;;;;;9.63;3.95;;;;;;;37.91;31.93;98537.63;5014737;28;20625;-86
2023/08/04 07:25:19;;;;;;;5.63;4.07;;;;;;;38.03;32.33;98538.19;4997522;28;20210;-86
2023/08/04 07:27:45;;;;;;;7.60;3.85;;;;;;;38.41;31.91;98536.06;4997358;28;20241;-86
2023/08/04 07:30:10;;;;;;;6.88;3.95;;;;;;;38.65;31.79;98534.38;5014971;28;20190;-86
2023/08/04 07:32:36;;;;;;;6.63;3.90;;;;;;;38.55;32.10;98537.16;5014928;28;20179;-86
2023/08/04 07:35:02;;;;;;;8.75;4.25;;;;;;;38.84;31.10;98532.72;4996917;28;20175;-86
2023/08/04 07:37:28;;;;;;;6.88;4.32;;;;;;;39.13;30.78;98530.16;5014504;28;20187;-86
2023/08/04 07:39:54;;;;;;;7.47;4.20;;;;;;;39.33;31.00;98529.31;4997474;28;20226;-86
2023/08/04 07:42:19;;;;;;;5.68;3.63;;;;;;;39.64;29.54;98533.56;4997221;28;20242;-86
2023/08/04 07:44:45;;;;;;;6.65;3.80;;;;;;;39.89;28.54;98530.66;4997316;28;20305;-87
2023/08/04 07:47:10;;;;;;;7.53;3.40;;;;;;;40.05;28.31;98532.22;5014377;28;20175;-86
2023/08/04 07:49:35;;;;;;;6.75;3.35;;;;;;;40.18;28.84;98538.97;4997410;28;20194;-86
2023/08/04 07:52:01;;;;;;;5.22;3.63;;;;;;;40.34;28.42;98535.00;4997211;28;20656;-86
2023/08/04 07:54:26;;;;;;;7.47;3.35;;;;;;;40.52;28.05;98520.59;4997232;28;20265;-87
2023/08/04 07:56:51;;;;;;;6.50;3.58;;;;;;;40.63;26.68;98518.56;4997360;28;20182;-86
2023/08/04 07:59:17;;;;;;;7.32;3.92;;;;;;;40.80;26.37;98516.19;5014063;28;20613;-86
2023/08/04 08:01:42;;;;;;;5.07;3.20;;;;;;;40.90;26.92;98518.88;5014130;28;20292;-86
2023/08/04 08:04:08;;;;;;;5.80;3.92;;;;;;;41.05;26.47;98519.50;5014288;28;20558;-86
2023/08/04 08:06:36;;;;;;;4.53;3.03;;;;;;;41.23;25.70;98519.84;5031705;28;20632;-87
2023/08/04 08:09:02;;;;;;;6.55;3.85;;;;;;;41.47;26.15;98524.25;5033908;28;20210;-86
2023/08/04 08:11:28;;;;;;;6.28;3.45;;;;;;;41.64;25.27;98519.03;5016580;28;20540;-86
2023/08/04 08:13:53;;;;;;;6.45;3.35;;;;;;;41.76;25.04;98517.81;5033689;28;20257;-87
2023/08/04 08:16:18;;;;;;;6.22;3.50;;;;;;;41.88;25.18;98519.00;5016181;28;20659;-86
2023/08/04 08:18:44;;;;;;;13.07;6.55;;;;;;;42.00;25.16;98521.31;5016554;28;20545;-86
2023/08/04 08:21:10;;;;;;;4.95;3.17;;;;;;;41.90;24.18;98510.44;5033851;28;20520;-87
2023/08/04 08:23:36;;;;;;;5.65;3.90;;;;;;;41.89;23.52;98508.81;5016573;28;20726;-88
2023/08/04 08:26:03;;;;;;;7.50;3.50;;;;;;;41.56;25.27;98514.19;5033727;28;20182;-87
2023/08/04 08:28:28;;;;;;;7.53;3.80;;;;;;;41.79;25.83;98515.28;5034010;28;20198;-87
2023/08/04 08:30:54;;;;;;;6.88;3.83;;;;;;;41.94;25.77;98514.22;5016132;28;20599;-87
2023/08/04 08:33:20;;;;;;;4.95;2.97;;;;;;;41.87;24.25;98514.63;5033279;28;20189;-86
2023/08/04 08:35:45;;;;;;;5.63;3.75;;;;;;;42.05;23.63;98505.50;5033269;28;20170;-88
2023/08/04 08:38:11;;;;;;;6.60;3.58;;;;;;;41.97;24.22;98511.69;5033628;28;20524;-87
2023/08/04 08:40:36;;;;;;;7.78;3.35;;;;;;;42.28;24.51;98501.03;5016138;28;20256;-87
2023/08/04 08:43:02;;;;;;;9.38;4.00;;;;;;;42.50;23.39;98497.63;5033098;28;20574;-87
2023/08/04 08:45:28;;;;;;;5.00;3.60;;;;;;;42.42;24.72;98501.88;5033211;28;20178;-87
2023/08/04 08:47:57;;;;;;;4.53;3.00;;;;;;;42.48;23.78;98500.66;5032734;28;20183;-87
2023/08/04 08:50:27;;;;;;;5.47;3.67;;;;;;;42.34;22.66;98499.81;5033520;28;20190;-92
2023/08/04 09:10:44;;;;;;;4.68;2.97;;;;;;;42.78;23.79;98480.84;5684879;23;20777;-89
2023/08/04 09:13:12;;;;;;;4.13;3.17;;;;;;;42.89;23.31;98477.88;4974396;28;20200;-86
2023/08/04 09:15:51;;;;;;;4.40;3.00;;;;;;;42.36;21.56;98483.81;4957022;28;20184;-86
2023/08/04 09:18:31;;;;;;;5.15;3.20;;;;;;;42.66;22.60;98476.94;4974534;28;20173;-87
2023/08/04 09:21:08;;;;;;;6.05;3.00;;;;;;;42.65;22.40;98467.88;4974488;28;20271;-87
2023/08/04 09:23:47;;;;;;;5.80;3.47;;;;;;;42.15;22.68;98460.47;4974333;28;20207;-87
2023/08/04 09:26:13;;;;;;;4.03;2.83;;;;;;;42.35;23.69;98460.13;4957113;28;20184;-86
2023/08/04 09:28:38;;;;;;;5.63;3.55;;;;;;;42.40;22.60;98449.03;4974092;28;20246;-88
2023/08/04 09:31:06;;;;;;;5.15;3.35;;;;;;;42.56;23.80;98452.34;4957585;28;20200;-86
2023/08/04 09:33:34;;;;;;;8.55;3.50;;;;;;;42.66;22.50;98452.97;4974073;28;20177;-90
2023/08/04 09:36:15;;;;;;;3.90;3.00;;;;;;;42.85;22.01;98447.31;4973941;28;20184;-87
2023/08/04 09:38:42;;;;;;;5.53;3.15;;;;;;;42.58;21.78;98439.88;4974593;28;20184;-86
2023/08/04 09:41:12;;;;;;;7.45;3.40;;;;;;;42.63;22.66;98434.28;4957600;28;20192;-88
2023/08/04 09:43:52;;;;;;;3.97;2.50;;;;;;;42.96;21.97;98440.50;4974785;28;20192;-92
2023/08/04 09:46:20;;;;;;;6.13;3.17;;;;;;;42.94;21.21;98439.19;4958888;28;20268;-92
2023/08/04 09:48:46;;;;;;;4.07;3.08;;;;;;;42.94;21.63;98439.19;4976752;28;20179;-92
2023/08/04 09:51:20;;;;;;;4.70;3.17;;;;;;;43.15;21.10;98432.13;4976693;28;20249;-90
2023/08/04 09:53:50;;;;;;;5.80;3.35;;;;;;;43.20;21.83;98437.53;4994079;28;20164;-90
2023/08/04 09:56:18;;;;;;;7.30;2.95;;;;;;;43.25;21.50;98435.47;4992751;28;20527;-89
2023/08/04 09:58:45;;;;;;;4.70;2.88;;;;;;;43.17;21.70;98433.44;4995277;28;20212;-90
2023/08/04 10:01:11;;;;;;;4.65;3.30;;;;;;;42.49;21.58;98438.91;4997651;28;20179;-91
2023/08/04 10:03:39;;;;;;;4.53;3.05;;;;;;;42.66;21.17;98422.63;4996074;28;20203;-90
2023/08/04 10:06:05;;;;;;;5.25;3.38;;;;;;;43.15;21.50;98434.88;4997357;28;20175;-91
2023/08/04 10:08:32;;;;;;;5.95;3.00;;;;;;;43.40;21.84;98437.09;4979893;28;20629;-90
2023/08/04 10:10:59;;;;;;;5.97;3.53;;;;;;;43.40;22.00;98431.56;4976399;28;20222;-88
2023/08/04 10:13:26;;;;;;;4.85;3.17;;;;;;;43.49;21.69;98432.47;4976964;28;20188;-89
2023/08/04 10:15:55;;;;;;;5.30;3.28;;;;;;;43.77;21.22;98428.50;4977196;28;20606;-87
2023/08/04 10:18:22;;;;;;;5.00;3.15;;;;;;;43.86;20.82;98425.81;4977378;28;20241;-89
2023/08/04 10:20:49;;;;;;;6.72;3.38;;;;;;;43.86;20.96;98429.41;4960398;28;20183;-90
2023/08/04 10:23:15;;;;;;;6.85;3.17;;;;;;;43.58;21.49;98421.50;4964111;28;20184;-90
2023/08/04 10:26:01;;;;;;;6.18;3.55;;;;;;;43.55;20.98;98422.94;4965266;28;20234;-90
2023/08/04 10:28:30;;;;;;;4.82;2.85;;;;;;;43.64;20.56;98414.72;4972283;28;20207;-90
2023/08/04 10:31:11;;;;;;;4.30;2.70;;;;;;;43.05;20.95;98418.53;4976732;28;20192;-91
2023/08/04 10:33:37;;;;;;;5.88;2.83;;;;;;;42.91;21.92;98423.22;4986189;28;20645;-89
2023/08/04 10:36:09;;;;;;;4.82;3.22;;;;;;;43.29;21.73;98414.44;4996628;28;20186;-91
2023/08/04 10:38:57;;;;;;;4.50;3.10;;;;;;;43.11;22.37;98411.81;4997081;28;20175;-92
2023/08/04 10:41:36;;;;;;;5.05;3.13;;;;;;;42.94;21.55;98411.59;4979854;28;20171;-92
2023/08/04 10:44:08;;;;;;;6.82;2.75;;;;;;;43.10;21.65;98410.97;4995668;28;20187;-92
2023/08/04 10:46:34;;;;;;;4.60;2.80;;;;;;;42.81;21.58;98413.22;4995466;28;20178;-89
2023/08/04 10:49:00;;;;;;;4.28;3.22;;;;;;;42.96;21.42;98409.34;4995260;28;20175;-92
2023/08/04 10:51:40;;;;;;;7.03;3.72;;;;;;;43.00;21.19;98404.88;4996327;28;20176;-92
2023/08/04 10:54:06;;;;;;;4.68;2.75;;;;;;;43.33;21.59;98409.09;4995203;28;20250;-91
2023/08/04 10:56:36;;;;;;;5.35;3.05;;;;;;;43.42;21.08;98399.78;4960385;28;20283;-90
2023/08/04 10:59:01;;;;;;;4.55;3.10;;;;;;;43.61;20.94;98388.56;4977338;28;20172;-90
2023/08/04 11:01:27;;;;;;;6.13;3.10;;;;;;;43.84;20.83;98398.53;4975910;28;20195;-89
2023/08/04 11:03:54;;;;;;;6.22;3.55;;;;;;;44.00;20.64;98390.66;4976220;28;20212;-91
2023/08/04 11:06:19;;;;;;;5.40;3.38;;;;;;;44.32;20.20;98381.25;4977004;28;20176;-89
2023/08/04 11:08:45;;;;;;;5.40;3.33;;;;;;;44.48;21.90;98385.22;4976713;28;20172;-91
2023/08/04 11:11:10;;;;;;;4.68;3.13;;;;;;;44.26;20.25;98385.31;4975719;28;20274;-91
2023/08/04 11:13:39;;;;;;;7.88;3.35;;;;;;;43.69;21.43;98371.25;4975342;28;20545;-91
2023/08/04 11:16:04;;;;;;;4.30;3.50;;;;;;;43.92;21.72;98381.16;4976298;28;20176;-91
2023/08/04 11:18:44;;;;;;;6.45;3.10;;;;;;;43.36;20.55;98372.63;4976874;28;20607;-92
2023/08/04 11:21:10;;;;;;;6.45;3.90;;;;;;;43.19;20.63;98380.72;4959276;28;20175;-92
2023/08/04 11:23:35;;;;;;;4.93;3.15;;;;;;;43.26;20.70;98365.38;4959266;28;20209;-90
2023/08/04 11:26:17;;;;;;;4.90;3.45;;;;;;;43.44;21.67;98360.84;4965935;28;20532;-93
2023/08/04 11:28:45;;;;;;;4.93;3.50;;;;;;;43.13;21.25;98366.22;4994871;28;20254;-91
2023/08/04 11:31:11;;;;;;;6.93;3.65;;;;;;;43.09;21.71;98367.13;4995666;28;20175;-93
2023/08/04 11:36:31;;;;;;;5.03;3.72;;;;;;;43.33;21.41;98353.91;4979004;28;20638;-92
2023/08/04 11:38:57;;;;;;;4.55;3.20;;;;;;;43.57;20.87;98354.44;4976086;28;20199;-93
2023/08/04 11:41:23;;;;;;;6.32;3.30;;;;;;;43.73;21.28;98354.91;4958940;28;20188;-91
2023/08/04 11:44:16;;;;;;;6.82;3.13;;;;;;;43.93;20.97;98341.38;4976954;28;20195;-91
2023/08/04 11:49:58;;;;;;;5.22;3.50;;;;;;;44.19;21.10;98332.41;4922563;28;20195;-90
2023/08/04 11:52:26;;;;;;;5.50;3.25;;;;;;;44.17;20.38;98334.69;4976101;28;20160;-93
2023/08/04 11:54:53;;;;;;;5.45;3.30;;;;;;;44.11;20.33;98338.75;4974727;28;20729;-91
2023/08/04 11:57:22;;;;;;;4.38;3.35;;;;;;;43.45;20.34;98328.53;4982801;28;20179;-93